Main page
METAR-TAF:

METAR-TAF

Airports :

Cambridge Airport

Cambridge, England

latitude: 52-12N, longitude: 000-11E, elevation: 15 m

Current weather observation

The report was made 8 hours and 21 minutes ago, at 17:50 UTC
Wind 5 kt from the Northeast
Temperature 5°C
Humidity 65%
Pressure 1034 hPa
Visibility 10 km or more
Few clouds at a height of 3000 ft
Broken clouds at a height of 4200 ft

METAR: EGSC 051750Z 04005KT 9999 FEW030 BKN042 05/M01 Q1034

Time: 02:11 (02:11 UTC)

Forecast

The report was made 12 hours and 18 minutes ago, at 13:53 UTC
Forecast valid from 05 at 15 UTC to 05 at 19 UTC
Wind 9 kt from the Northeast
Visibility 10 km or more
Broken clouds at a height of 4000 ft

TAF: EGSC 051353Z 0515/0519 04009KT 9999 BKN040

Weather observations and forecasts of more than 4000 airports (METAR and TAF reports).

The available stations are represented by yellow and red dots on the map.

Hover mouse over dot to see the name of the station.

Then click to see weather observations and forecasts.

To change the map : click on the green buttons with a black cross to zoom in, on the green button with a dash to zoom out, or on the green arrows for adjacent maps.


METAR-TAF: